createdAt,value
2023-01-19T00:01:08.696Z,12.40
2023-01-19T00:03:36.538Z,14.00
2023-01-19T00:06:06.899Z,11.10
2023-01-19T00:08:34.930Z,10.00
2023-01-19T00:11:02.026Z,7.70
2023-01-19T00:13:29.169Z,6.90
2023-01-19T00:15:55.904Z,4.60
2023-01-19T00:18:22.440Z,5.90
2023-01-19T00:20:49.373Z,5.30
2023-01-19T00:23:16.457Z,5.00
2023-01-19T00:25:47.491Z,4.70
2023-01-19T00:30:43.595Z,3.90
2023-01-19T00:33:13.022Z,3.90
2023-01-19T00:35:41.862Z,3.80
2023-01-19T00:38:09.126Z,4.00
2023-01-19T00:40:35.874Z,3.90
2023-01-19T00:43:05.720Z,4.70
2023-01-19T00:45:33.072Z,4.80
2023-01-19T00:48:02.547Z,4.20
2023-01-19T00:50:30.129Z,4.40
2023-01-19T00:53:00.959Z,4.30
2023-01-19T00:57:54.838Z,2.90
2023-01-19T01:00:21.891Z,3.80
2023-01-19T01:02:50.075Z,4.10
2023-01-19T01:05:17.608Z,3.80
2023-01-19T01:07:44.926Z,3.80
2023-01-19T01:10:13.440Z,3.10
2023-01-19T01:12:40.644Z,4.10
2023-01-19T01:15:08.501Z,3.50
2023-01-19T01:17:49.044Z,3.80
2023-01-19T01:20:17.209Z,4.00
2023-01-19T01:22:47.237Z,3.40
2023-01-19T01:25:14.941Z,2.50
2023-01-19T01:27:41.747Z,4.10
2023-01-19T01:30:09.900Z,4.40
2023-01-19T01:32:36.656Z,5.10
2023-01-19T01:35:08.428Z,3.10
2023-01-19T01:37:36.156Z,3.30
2023-01-19T01:40:03.561Z,3.60
2023-01-19T01:42:31.208Z,3.50
2023-01-19T01:45:02.557Z,2.90
2023-01-19T01:47:31.762Z,3.20
2023-01-19T01:50:18.491Z,2.60
2023-01-19T01:53:06.884Z,2.60
2023-01-19T01:55:36.841Z,2.90
2023-01-19T01:58:04.511Z,3.00
2023-01-19T02:00:51.107Z,2.30
2023-01-19T02:03:17.853Z,3.10
2023-01-19T02:05:45.260Z,2.70
2023-01-19T02:08:37.181Z,3.30
2023-01-19T02:11:22.975Z,2.60
2023-01-19T02:13:49.826Z,2.90
2023-01-19T02:16:16.707Z,2.60
2023-01-19T02:18:44.650Z,2.90
2023-01-19T02:21:20.600Z,2.50
2023-01-19T02:23:49.489Z,2.80
2023-01-19T02:26:18.598Z,3.20
2023-01-19T02:28:50.344Z,2.70
2023-01-19T02:31:17.644Z,2.80
2023-01-19T02:33:44.935Z,2.60
2023-01-19T02:36:12.940Z,3.00
2023-01-19T02:38:41.590Z,3.10
2023-01-19T02:41:09.433Z,3.60
2023-01-19T02:43:36.995Z,3.20
2023-01-19T02:46:03.795Z,3.40
2023-01-19T02:48:30.667Z,3.70
2023-01-19T02:51:03.516Z,2.50
2023-01-19T02:53:30.086Z,3.40
2023-01-19T02:55:58.918Z,3.60
2023-01-19T02:58:44.512Z,3.00
2023-01-19T03:01:20.133Z,3.30
2023-01-19T03:03:53.919Z,3.10
2023-01-19T03:06:21.013Z,3.40
2023-01-19T03:08:52.404Z,3.20
2023-01-19T03:11:18.896Z,2.60
2023-01-19T03:13:45.553Z,3.50
2023-01-19T03:16:14.738Z,3.10
2023-01-19T03:18:43.741Z,4.40
2023-01-19T03:21:12.602Z,4.90
2023-01-19T03:23:40.884Z,4.70
2023-01-19T03:26:09.458Z,4.00
2023-01-19T03:28:44.798Z,4.50
2023-01-19T03:31:22.209Z,5.20
2023-01-19T03:43:55.466Z,4.10
2023-01-19T03:46:25.871Z,4.50
2023-01-19T03:48:54.990Z,4.90
2023-01-19T03:51:23.281Z,4.60
2023-01-19T03:53:51.217Z,4.80
2023-01-19T03:56:23.493Z,4.70
2023-01-19T03:58:51.872Z,3.80
2023-01-19T04:01:23.262Z,4.10
2023-01-19T04:03:52.005Z,5.10
2023-01-19T04:06:21.255Z,4.40
2023-01-19T04:08:50.301Z,5.00
2023-01-19T04:11:18.506Z,5.20
2023-01-19T04:13:46.625Z,5.50
2023-01-19T04:16:14.616Z,4.80
2023-01-19T04:18:42.557Z,4.80
2023-01-19T04:21:11.168Z,4.40
2023-01-19T04:23:39.133Z,4.90
2023-01-19T04:26:08.254Z,5.50
2023-01-19T04:28:37.287Z,5.80
2023-01-19T04:31:06.281Z,5.00
2023-01-19T04:33:34.507Z,6.50
2023-01-19T04:36:04.169Z,6.30
2023-01-19T04:38:32.104Z,5.70
2023-01-19T04:40:59.960Z,4.70
2023-01-19T04:43:28.061Z,6.10
2023-01-19T04:45:55.866Z,7.60
2023-01-19T04:48:24.013Z,6.70
2023-01-19T04:50:52.471Z,9.90
2023-01-19T04:56:55.949Z,5.30
2023-01-19T04:59:22.682Z,5.30
2023-01-19T05:01:49.349Z,6.20
2023-01-19T05:04:16.101Z,6.10
2023-01-19T05:06:42.843Z,5.20
2023-01-19T05:09:12.505Z,5.40
2023-01-19T05:11:39.433Z,4.40
2023-01-19T05:14:06.429Z,4.70
2023-01-19T05:16:34.076Z,5.10
2023-01-19T05:19:00.760Z,4.50
2023-01-19T05:21:27.856Z,37.30
2023-01-19T05:23:54.515Z,15.90
2023-01-19T05:26:20.991Z,7.80
2023-01-19T05:28:48.091Z,5.50
2023-01-19T05:31:14.994Z,5.30
2023-01-19T05:33:42.045Z,10.80
2023-01-19T05:36:11.710Z,12.90
2023-01-19T05:38:38.585Z,13.20
2023-01-19T05:41:05.361Z,21.00
2023-01-19T05:43:32.154Z,11.70
2023-01-19T05:45:59.023Z,13.80
2023-01-19T05:48:25.862Z,11.50
2023-01-19T05:50:56.517Z,13.10
2023-01-19T05:53:23.175Z,16.50
2023-01-19T05:55:50.003Z,14.40
2023-01-19T05:58:16.705Z,18.20
2023-01-19T06:00:43.386Z,11.00
2023-01-19T06:03:10.244Z,9.70
2023-01-19T06:05:38.815Z,12.00
2023-01-19T06:08:05.628Z,8.70
2023-01-19T06:10:32.418Z,10.40
2023-01-19T06:12:59.725Z,30.00
2023-01-19T06:15:26.961Z,23.20
2023-01-19T06:17:53.773Z,19.00
2023-01-19T06:20:20.687Z,19.80
2023-01-19T06:22:47.426Z,17.30
2023-01-19T06:25:14.282Z,16.00
2023-01-19T06:27:44.781Z,8.50
2023-01-19T06:30:12.200Z,10.00
2023-01-19T06:32:38.820Z,11.70
2023-01-19T06:35:07.165Z,9.20
2023-01-19T06:37:39.572Z,13.20
2023-01-19T06:40:06.907Z,8.80
2023-01-19T06:42:33.884Z,8.20
2023-01-19T06:45:00.530Z,10.50
2023-01-19T06:47:27.194Z,10.10
2023-01-19T06:49:53.718Z,9.10
2023-01-19T06:52:20.501Z,8.90
2023-01-19T06:54:47.014Z,14.30
2023-01-19T06:57:14.021Z,44.00
2023-01-19T06:59:40.709Z,12.90
2023-01-19T07:02:26.357Z,19.70
2023-01-19T07:04:56.089Z,34.40
2023-01-19T07:07:22.858Z,17.40
2023-01-19T07:09:49.819Z,18.40
2023-01-19T07:12:20.828Z,21.30
2023-01-19T07:14:48.814Z,15.40
2023-01-19T07:17:15.346Z,11.90
2023-01-19T07:19:42.029Z,10.90
2023-01-19T07:22:08.575Z,8.80
2023-01-19T07:24:37.400Z,14.70
2023-01-19T07:27:04.761Z,13.20
2023-01-19T07:29:31.598Z,12.90
2023-01-19T07:31:58.311Z,9.90
2023-01-19T07:34:25.084Z,7.20
2023-01-19T07:36:51.565Z,16.70
2023-01-19T07:39:18.202Z,32.50
2023-01-19T07:41:44.793Z,20.90
2023-01-19T07:44:11.625Z,10.00
2023-01-19T07:46:38.432Z,9.80
2023-01-19T07:49:05.311Z,12.80
2023-01-19T07:51:31.894Z,6.40
2023-01-19T07:53:58.696Z,11.30
2023-01-19T07:56:27.203Z,7.70
2023-01-19T07:58:54.121Z,8.30
2023-01-19T08:01:21.012Z,9.50
2023-01-19T08:03:48.440Z,32.40
2023-01-19T08:06:22.542Z,15.90
2023-01-19T08:08:49.799Z,8.70
2023-01-19T08:11:16.597Z,10.90
2023-01-19T08:13:43.229Z,17.90
2023-01-19T08:16:10.229Z,19.00
2023-01-19T08:18:39.378Z,23.10
2023-01-19T08:21:06.049Z,14.80
2023-01-19T08:23:33.007Z,12.50
2023-01-19T08:25:59.671Z,9.60
2023-01-19T08:28:38.071Z,17.40
2023-01-19T08:31:18.508Z,9.20
2023-01-19T08:33:46.585Z,7.20
2023-01-19T08:36:15.793Z,15.00
2023-01-19T08:38:44.353Z,9.60
2023-01-19T08:41:11.410Z,8.60
2023-01-19T08:43:38.145Z,9.10
2023-01-19T08:46:05.036Z,8.40
2023-01-19T08:48:31.832Z,12.50
2023-01-19T08:51:01.599Z,11.80
2023-01-19T08:53:30.512Z,22.00
2023-01-19T08:56:00.598Z,23.50
2023-01-19T08:58:30.239Z,7.40
2023-01-19T09:00:59.203Z,15.00
2023-01-19T09:03:25.777Z,7.80
2023-01-19T09:05:52.738Z,17.10
2023-01-19T09:08:32.047Z,12.50
2023-01-19T09:11:02.371Z,20.70
2023-01-19T09:13:29.355Z,21.10
2023-01-19T09:16:01.342Z,9.90
2023-01-19T09:18:30.812Z,16.50
2023-01-19T09:20:57.462Z,6.40
2023-01-19T09:23:24.881Z,33.30
2023-01-19T09:25:56.254Z,8.40
2023-01-19T09:28:23.094Z,5.10
2023-01-19T09:30:50.372Z,6.90
2023-01-19T09:33:19.444Z,6.80
2023-01-19T09:35:47.734Z,4.80
2023-01-19T09:38:18.767Z,10.00
2023-01-19T09:40:52.077Z,8.50
2023-01-19T09:43:27.632Z,7.60
2023-01-19T09:45:58.106Z,6.20
2023-01-19T09:50:55.395Z,5.60
2023-01-19T09:53:39.988Z,6.90
2023-01-19T09:56:14.513Z,12.00
2023-01-19T09:58:41.743Z,7.00
2023-01-19T10:01:40.150Z,11.10
2023-01-19T10:04:34.822Z,8.50
2023-01-19T10:07:21.009Z,7.80
2023-01-19T10:10:06.717Z,7.10
2023-01-19T10:12:50.341Z,6.80
2023-01-19T10:15:36.033Z,6.00
2023-01-19T10:18:21.315Z,4.80
2023-01-19T10:21:04.582Z,4.90
2023-01-19T10:23:41.718Z,4.90
2023-01-19T10:26:24.034Z,18.40
2023-01-19T10:28:53.817Z,7.40
2023-01-19T10:31:22.755Z,11.60
2023-01-19T10:33:51.896Z,28.50
2023-01-19T10:36:20.314Z,6.60
2023-01-19T10:38:57.471Z,4.00
2023-01-19T10:41:30.144Z,4.10
2023-01-19T10:44:11.336Z,6.10
2023-01-19T10:46:49.897Z,4.10
2023-01-19T10:49:27.209Z,3.60
2023-01-19T10:51:54.628Z,3.70
2023-01-19T10:54:21.720Z,3.70
2023-01-19T10:56:58.597Z,4.30
2023-01-19T10:59:33.031Z,3.20
2023-01-19T11:02:15.600Z,3.50
2023-01-19T11:04:50.061Z,4.20
2023-01-19T11:07:16.887Z,3.30
2023-01-19T11:09:43.699Z,3.40
2023-01-19T11:12:19.914Z,3.00
2023-01-19T11:14:48.306Z,3.40
2023-01-19T11:17:19.448Z,2.50
2023-01-19T11:19:59.632Z,2.60
2023-01-19T11:22:28.311Z,2.30
2023-01-19T11:25:01.267Z,2.30
2023-01-19T11:27:28.932Z,2.20
2023-01-19T11:30:01.646Z,2.20
2023-01-19T11:32:28.567Z,2.80
2023-01-19T11:38:40.067Z,2.60
2023-01-19T11:41:13.356Z,2.80
2023-01-19T11:43:49.233Z,3.30
2023-01-19T11:46:29.867Z,2.60
2023-01-19T11:49:01.449Z,3.20
2023-01-19T11:51:36.840Z,4.70
2023-01-19T11:54:08.291Z,6.70
2023-01-19T11:56:35.559Z,2.70
2023-01-19T11:59:04.309Z,3.10
2023-01-19T12:01:38.536Z,4.50
2023-01-19T12:04:24.331Z,3.50
2023-01-19T12:06:57.270Z,3.00
2023-01-19T12:09:53.035Z,2.90
2023-01-19T12:12:39.956Z,3.50
2023-01-19T12:15:45.535Z,3.40
2023-01-19T12:18:17.913Z,3.40
2023-01-19T12:20:50.211Z,4.40
2023-01-19T12:23:40.184Z,6.80
2023-01-19T12:26:27.772Z,16.80
2023-01-19T12:29:00.540Z,9.60
2023-01-19T12:31:27.839Z,10.70
2023-01-19T12:33:57.951Z,6.90
2023-01-19T12:36:34.805Z,5.90
2023-01-19T12:39:06.571Z,7.00
2023-01-19T12:41:36.471Z,6.30
2023-01-19T12:44:13.942Z,6.90
2023-01-19T12:46:42.012Z,4.70
2023-01-19T12:49:20.270Z,4.10
2023-01-19T12:51:47.859Z,3.70
2023-01-19T12:54:40.912Z,4.80
2023-01-19T12:57:19.860Z,4.40
2023-01-19T12:59:46.969Z,3.90
2023-01-19T13:02:19.854Z,5.60
2023-01-19T13:05:05.842Z,5.40
2023-01-19T13:07:51.148Z,6.70
2023-01-19T13:10:36.895Z,5.00
2023-01-19T13:13:27.996Z,32.90
2023-01-19T13:16:01.841Z,5.60
2023-01-19T13:18:39.540Z,6.20
2023-01-19T13:21:07.596Z,9.20
2023-01-19T13:23:49.376Z,9.20
2023-01-19T13:26:17.665Z,9.00
2023-01-19T13:28:48.350Z,5.40
2023-01-19T13:31:35.390Z,6.60
2023-01-19T13:34:03.009Z,17.00
2023-01-19T13:36:34.385Z,10.80
2023-01-19T13:39:04.113Z,14.20
2023-01-19T13:41:35.061Z,13.50
2023-01-19T13:44:04.467Z,18.40
2023-01-19T13:46:32.901Z,40.60
2023-01-19T13:49:02.024Z,15.40
2023-01-19T13:52:12.493Z,6.90
2023-01-19T13:54:54.336Z,17.40
2023-01-19T13:57:28.451Z,14.60
2023-01-19T14:00:01.708Z,8.50
2023-01-19T14:02:28.712Z,8.80
2023-01-19T14:04:56.726Z,5.50
2023-01-19T14:07:26.754Z,8.40
2023-01-19T14:10:04.308Z,7.10
2023-01-19T14:12:35.530Z,25.10
2023-01-19T14:15:10.628Z,18.60
2023-01-19T14:17:37.529Z,15.00
2023-01-19T14:20:26.754Z,8.90
2023-01-19T14:22:53.624Z,7.00
2023-01-19T14:25:30.491Z,11.20
2023-01-19T14:28:18.333Z,17.80
2023-01-19T14:30:55.552Z,11.70
2023-01-19T14:33:43.077Z,8.00
2023-01-19T14:36:17.876Z,9.40
2023-01-19T14:38:49.449Z,7.90
2023-01-19T14:41:40.540Z,10.10
2023-01-19T14:44:19.424Z,11.40
2023-01-19T14:46:47.499Z,11.10
2023-01-19T14:49:28.573Z,35.40
2023-01-19T14:51:58.754Z,27.20
2023-01-19T14:54:31.779Z,24.10
2023-01-19T14:57:01.267Z,20.10
2023-01-19T14:59:31.602Z,68.70
2023-01-19T15:01:59.269Z,27.60
2023-01-19T15:04:26.415Z,19.00
2023-01-19T15:06:54.587Z,13.60
2023-01-19T15:09:21.578Z,14.20
2023-01-19T15:11:52.069Z,11.70
2023-01-19T15:14:20.759Z,13.00
2023-01-19T15:16:47.724Z,10.00
2023-01-19T15:19:15.628Z,18.50
2023-01-19T15:21:42.729Z,17.40
2023-01-19T15:24:10.270Z,14.90
2023-01-19T15:26:38.064Z,16.30
2023-01-19T15:29:38.065Z,20.30
2023-01-19T15:32:04.903Z,13.40
2023-01-19T15:34:37.503Z,13.10
2023-01-19T15:37:17.245Z,14.50
2023-01-19T15:39:44.285Z,18.20
2023-01-19T15:42:24.438Z,25.20
2023-01-19T15:44:54.766Z,17.80
2023-01-19T15:47:21.594Z,18.30
2023-01-19T15:49:49.563Z,19.10
2023-01-19T15:52:21.628Z,17.40
2023-01-19T15:54:53.704Z,16.50
2023-01-19T15:57:20.741Z,16.80
2023-01-19T15:59:47.997Z,17.40
2023-01-19T16:02:23.760Z,21.70
2023-01-19T16:04:53.439Z,20.10
2023-01-19T16:07:33.573Z,46.40
2023-01-19T16:10:13.010Z,81.60
2023-01-19T16:12:47.088Z,42.30
2023-01-19T16:17:48.625Z,62.90
2023-01-19T16:20:27.575Z,62.30
2023-01-19T16:23:14.579Z,58.00
2023-01-19T16:25:42.642Z,42.50
2023-01-19T16:28:10.093Z,59.50
2023-01-19T16:30:39.770Z,27.90
2023-01-19T16:33:07.824Z,35.50
2023-01-19T16:35:35.027Z,41.90
2023-01-19T16:38:01.883Z,25.10
2023-01-19T16:40:31.508Z,24.60
2023-01-19T16:42:58.525Z,25.90
2023-01-19T16:45:25.469Z,59.50
2023-01-19T16:47:54.052Z,33.90
2023-01-19T16:50:20.998Z,59.10
2023-01-19T16:52:50.098Z,64.50
2023-01-19T16:55:28.405Z,58.80
2023-01-19T16:57:55.256Z,59.70
2023-01-19T17:00:35.195Z,48.00
2023-01-19T17:03:02.050Z,40.60
2023-01-19T17:05:29.231Z,54.20
2023-01-19T17:07:59.031Z,42.80
2023-01-19T17:10:46.163Z,38.20
2023-01-19T17:13:23.406Z,67.60
2023-01-19T17:15:57.485Z,109.20
2023-01-19T17:18:24.920Z,71.60
2023-01-19T17:20:54.686Z,49.80
2023-01-19T17:23:22.024Z,43.90
2023-01-19T17:26:12.236Z,44.70
2023-01-19T17:28:39.626Z,47.50
2023-01-19T17:31:10.285Z,41.60
2023-01-19T17:33:43.041Z,38.70
2023-01-19T17:36:13.697Z,52.90
2023-01-19T17:38:41.218Z,49.50
2023-01-19T17:41:18.339Z,43.40
2023-01-19T17:43:49.854Z,59.70
2023-01-19T17:46:29.692Z,68.90
2023-01-19T17:49:01.047Z,59.20
2023-01-19T17:51:31.047Z,54.00
2023-01-19T17:53:58.227Z,48.90
2023-01-19T17:56:28.778Z,41.50
2023-01-19T17:58:58.530Z,41.20
2023-01-19T18:01:33.071Z,37.70
2023-01-19T18:04:02.042Z,41.90
2023-01-19T18:06:28.831Z,68.50
2023-01-19T18:09:01.071Z,57.10
2023-01-19T18:11:27.897Z,53.60
2023-01-19T18:13:54.638Z,40.90
2023-01-19T18:16:23.675Z,31.90
2023-01-19T18:18:57.948Z,30.90
2023-01-19T18:21:33.902Z,28.90
2023-01-19T18:24:02.430Z,36.90
2023-01-19T18:26:44.661Z,19.50
2023-01-19T18:29:11.544Z,18.60
2023-01-19T18:31:49.556Z,19.50
2023-01-19T18:34:19.380Z,63.10
2023-01-19T18:36:48.860Z,67.30
2023-01-19T18:39:15.480Z,70.30
2023-01-19T18:41:44.717Z,67.40
2023-01-19T18:44:14.458Z,57.80
2023-01-19T18:46:41.387Z,51.40
2023-01-19T18:49:09.050Z,55.30
2023-01-19T18:51:39.954Z,38.40
2023-01-19T18:56:33.346Z,33.10
2023-01-19T18:59:01.263Z,29.70
2023-01-19T19:01:32.411Z,93.70
2023-01-19T19:03:59.656Z,40.60
2023-01-19T19:06:29.405Z,45.20
2023-01-19T19:08:58.496Z,44.40
2023-01-19T19:11:28.311Z,46.30
2023-01-19T19:14:00.567Z,44.40
2023-01-19T19:16:28.167Z,43.70
2023-01-19T19:18:58.558Z,41.70
2023-01-19T19:21:25.219Z,42.50
2023-01-19T19:24:01.555Z,83.70
2023-01-19T19:26:28.898Z,148.50
2023-01-19T19:28:55.768Z,92.50
2023-01-19T19:31:24.913Z,58.00
2023-01-19T19:33:52.015Z,53.30
2023-01-19T19:36:19.452Z,50.40
2023-01-19T19:38:46.973Z,48.90
2023-01-19T19:41:18.872Z,58.90
2023-01-19T19:43:45.949Z,36.20
2023-01-19T19:46:14.125Z,33.00
2023-01-19T19:48:43.447Z,26.90
2023-01-19T19:51:23.145Z,22.50
2023-01-19T19:53:51.648Z,20.20
2023-01-19T19:56:20.432Z,21.10
2023-01-19T19:58:47.412Z,17.60
2023-01-19T20:01:18.509Z,21.00
2023-01-19T20:03:45.581Z,21.40
2023-01-19T20:06:17.444Z,19.10
2023-01-19T20:08:44.388Z,16.60
2023-01-19T20:11:18.167Z,16.80
2023-01-19T20:13:46.899Z,17.30
2023-01-19T20:16:15.268Z,16.00
2023-01-19T20:19:05.868Z,15.20
2023-01-19T20:21:43.741Z,15.60
2023-01-19T20:24:17.049Z,16.10
2023-01-19T20:26:46.223Z,14.00
2023-01-19T20:29:40.687Z,19.20
2023-01-19T20:32:07.566Z,21.90
2023-01-19T20:34:37.851Z,27.50
2023-01-19T20:37:06.451Z,31.70
2023-01-19T20:39:34.633Z,25.10
2023-01-19T20:42:01.517Z,23.00
2023-01-19T20:44:40.004Z,24.50
2023-01-19T20:47:08.682Z,24.80
2023-01-19T20:49:38.484Z,26.20
2023-01-19T20:52:08.582Z,24.20
2023-01-19T20:58:11.701Z,27.70
2023-01-19T21:00:40.141Z,28.70
2023-01-19T21:03:07.195Z,33.20
2023-01-19T21:05:37.290Z,26.20
2023-01-19T21:08:05.108Z,30.30
2023-01-19T21:10:34.141Z,26.80
2023-01-19T21:13:01.854Z,18.00
2023-01-19T21:15:28.729Z,16.50
2023-01-19T21:17:56.661Z,17.90
2023-01-19T21:20:32.367Z,17.70
2023-01-19T21:22:59.183Z,17.10
2023-01-19T21:25:26.117Z,17.60
2023-01-19T21:27:52.916Z,14.60
2023-01-19T21:30:19.769Z,16.20
2023-01-19T21:32:49.182Z,17.00
2023-01-19T21:35:23.555Z,13.90
2023-01-19T21:37:50.171Z,14.30
2023-01-19T21:40:17.234Z,13.70
2023-01-19T21:42:46.475Z,12.90
2023-01-19T21:45:13.485Z,12.40
2023-01-19T21:47:49.758Z,11.10
2023-01-19T21:50:19.574Z,12.80
2023-01-19T21:52:46.334Z,10.30
2023-01-19T21:55:16.354Z,8.60
2023-01-19T21:57:43.526Z,10.40
2023-01-19T22:00:13.281Z,10.50
2023-01-19T22:02:58.615Z,9.50
2023-01-19T22:05:29.930Z,9.80
2023-01-19T22:07:56.906Z,11.50
2023-01-19T22:10:23.746Z,13.10
2023-01-19T22:12:50.335Z,12.30
2023-01-19T22:15:19.517Z,11.00
2023-01-19T22:17:46.185Z,13.00
2023-01-19T22:20:13.218Z,13.90
2023-01-19T22:22:39.985Z,11.40
2023-01-19T22:25:06.573Z,12.40
2023-01-19T22:27:33.309Z,14.20
2023-01-19T22:30:00.235Z,10.30
2023-01-19T22:32:27.218Z,12.10
2023-01-19T22:35:14.735Z,19.30
2023-01-19T22:37:41.721Z,19.10
2023-01-19T22:40:09.085Z,21.20
2023-01-19T22:42:36.098Z,26.00
2023-01-19T22:45:02.930Z,21.60
2023-01-19T22:47:32.344Z,34.20
2023-01-19T22:49:59.014Z,33.30
2023-01-19T22:52:28.019Z,65.90
2023-01-19T22:54:57.690Z,27.80
2023-01-19T22:57:24.449Z,19.00
2023-01-19T22:59:51.164Z,19.20
2023-01-19T23:02:19.790Z,16.70
2023-01-19T23:04:47.327Z,16.50
2023-01-19T23:07:13.999Z,16.50
2023-01-19T23:09:44.892Z,17.10
2023-01-19T23:12:11.496Z,18.40
2023-01-19T23:14:38.479Z,17.90
2023-01-19T23:17:07.886Z,14.00
2023-01-19T23:19:37.069Z,16.10
2023-01-19T23:22:04.020Z,20.70
2023-01-19T23:24:33.196Z,20.30
2023-01-19T23:27:02.872Z,18.50
2023-01-19T23:29:32.047Z,16.40
2023-01-19T23:31:58.758Z,16.40
2023-01-19T23:34:28.717Z,15.20
2023-01-19T23:36:57.793Z,13.30
2023-01-19T23:39:24.629Z,11.90
2023-01-19T23:42:14.802Z,11.60
2023-01-19T23:44:46.336Z,11.40
2023-01-19T23:47:13.264Z,11.40
2023-01-19T23:49:40.112Z,11.30
2023-01-19T23:52:09.958Z,11.60
2023-01-19T23:54:36.854Z,14.10
2023-01-19T23:57:03.962Z,14.60
2023-01-19T23:59:32.930Z,15.70
